Time;durP1;ratioP1;P1;durP2;ratioP2;P2;SDS_P1;SDS_P2;PMS_P1;PMS_P2;Temp;Humidity;BMP_temperature;BMP_pressure;BME280_temperature;BME280_humidity;BME280_pressure;Samples;Min_cycle;Max_cycle;Signal;HPM_P1;HPM_P2
2021/09/08 00:01:20;;;;;;;20.38;12.50;;;;;;;15.89;91.74;98415.94;4961461;28;20035;-58
2021/09/08 00:03:45;;;;;;;21.08;12.63;;;;;;;15.88;91.91;98412.47;4962199;28;20050;-58
2021/09/08 00:06:11;;;;;;;17.10;12.23;;;;;;;15.89;91.93;98406.25;4961986;28;20047;-60
2021/09/08 00:08:36;;;;;;;18.55;11.63;;;;;;;15.84;92.05;98405.66;4961112;28;20057;-58
2021/09/08 00:11:01;;;;;;;18.60;12.30;;;;;;;15.81;92.45;98411.09;4961554;28;20027;-58
2021/09/08 00:13:29;;;;;;;21.23;12.15;;;;;;;15.77;92.39;98406.97;4962256;28;20031;-60
2021/09/08 00:15:55;;;;;;;18.70;12.70;;;;;;;15.73;92.97;98402.75;4961636;28;20066;-57
2021/09/08 00:18:20;;;;;;;18.00;11.95;;;;;;;15.92;91.89;98403.44;4962091;28;20046;-60
2021/09/08 00:20:45;;;;;;;17.15;12.05;;;;;;;15.86;91.58;98398.56;4961539;28;20613;-60
2021/09/08 00:23:11;;;;;;;17.80;11.48;;;;;;;15.83;92.27;98403.97;4961807;28;20027;-60
2021/09/08 00:25:36;;;;;;;16.90;11.30;;;;;;;15.73;92.38;98402.75;4961208;28;20038;-58
2021/09/08 00:28:01;;;;;;;18.80;11.32;;;;;;;15.82;91.79;98399.63;4961846;28;20069;-58
2021/09/08 00:30:27;;;;;;;17.33;11.57;;;;;;;15.85;91.87;98404.72;4961209;28;20066;-59
2021/09/08 00:32:52;;;;;;;19.20;12.15;;;;;;;15.75;92.17;98400.91;4962223;28;20129;-58
2021/09/08 00:35:18;;;;;;;22.58;12.02;;;;;;;15.70;92.01;98395.03;4961022;28;20038;-57
2021/09/08 00:37:43;;;;;;;16.80;12.00;;;;;;;15.67;92.54;98392.56;4960939;28;20130;-58
2021/09/08 00:40:10;;;;;;;20.88;12.10;;;;;;;15.66;92.69;98390.88;4960936;28;20392;-57
2021/09/08 00:42:36;;;;;;;18.83;11.45;;;;;;;15.82;91.60;98397.00;4961591;28;20676;-58
2021/09/08 00:45:01;;;;;;;24.20;12.35;;;;;;;15.54;92.40;98393.25;4960081;28;20030;-58
2021/09/08 00:47:27;;;;;;;17.70;11.90;;;;;;;15.45;93.50;98391.13;4959814;28;20129;-58
2021/09/08 00:49:52;;;;;;;18.23;11.70;;;;;;;15.66;92.44;98389.09;4961673;28;20034;-58
2021/09/08 00:52:18;;;;;;;16.58;11.18;;;;;;;15.86;90.85;98392.41;4961025;28;20319;-58
2021/09/08 00:54:50;;;;;;;19.55;12.57;;;;;;;15.46;92.02;98384.94;4961419;28;20033;-58
2021/09/08 00:57:19;;;;;;;20.90;12.82;;;;;;;15.42;92.29;98383.44;4960527;28;20041;-57
2021/09/08 00:59:45;;;;;;;20.40;11.57;;;;;;;15.39;92.55;98375.69;4961425;28;20085;-58
2021/09/08 01:02:11;;;;;;;15.95;11.15;;;;;;;15.51;92.54;98377.66;4959383;28;20046;-59
2021/09/08 01:04:37;;;;;;;19.95;12.18;;;;;;;15.30;92.52;98371.78;4961470;28;20019;-59
2021/09/08 01:07:04;;;;;;;19.17;12.80;;;;;;;15.40;92.57;98377.38;4960802;28;20093;-58
2021/09/08 01:09:30;;;;;;;19.05;12.50;;;;;;;15.48;91.65;98385.72;4961650;28;20314;-58
2021/09/08 01:11:57;;;;;;;20.85;12.07;;;;;;;15.50;91.64;98383.84;4959454;28;20613;-60
2021/09/08 01:14:22;;;;;;;19.75;11.98;;;;;;;15.48;91.40;98377.81;4961466;28;20053;-58
2021/09/08 01:16:49;;;;;;;20.02;12.88;;;;;;;15.30;92.22;98374.41;4960674;28;20436;-57
2021/09/08 01:19:15;;;;;;;20.55;11.73;;;;;;;15.59;91.67;98375.44;4960900;28;20030;-59
2021/09/08 01:21:40;;;;;;;19.98;11.43;;;;;;;15.49;91.61;98378.66;4960852;28;20502;-59
2021/09/08 01:24:06;;;;;;;20.30;12.38;;;;;;;15.44;91.78;98371.03;4960873;28;20511;-58
2021/09/08 01:26:36;;;;;;;20.00;12.23;;;;;;;15.38;92.94;98376.63;4960312;28;20063;-58
2021/09/08 01:29:02;;;;;;;22.65;12.45;;;;;;;15.40;91.93;98374.75;4960583;28;21052;-58
2021/09/08 01:31:28;;;;;;;22.25;12.77;;;;;;;15.28;91.73;98383.31;4960761;28;20584;-58
2021/09/08 01:33:54;;;;;;;19.15;12.05;;;;;;;15.29;92.47;98377.13;4961007;28;20025;-58
2021/09/08 01:36:19;;;;;;;19.02;12.07;;;;;;;15.28;92.45;98372.81;4959255;28;20053;-58
2021/09/08 01:38:45;;;;;;;20.38;12.32;;;;;;;15.12;92.87;98378.88;4961063;28;20015;-60
2021/09/08 01:41:10;;;;;;;20.27;12.60;;;;;;;15.16;93.05;98383.06;4960575;28;20641;-58
2021/09/08 01:43:36;;;;;;;19.63;12.90;;;;;;;15.14;92.92;98379.63;4959460;28;20102;-58
2021/09/08 01:46:01;;;;;;;21.80;12.70;;;;;;;15.11;93.10;98374.56;4960119;28;20046;-58
2021/09/08 01:48:26;;;;;;;18.75;12.27;;;;;;;15.34;92.05;98375.09;4960258;28;20072;-58
2021/09/08 01:50:52;;;;;;;18.38;12.25;;;;;;;15.27;92.39;98376.34;4959639;28;20042;-58
2021/09/08 01:53:19;;;;;;;20.83;12.82;;;;;;;15.10;92.73;98364.13;4960736;28;20023;-59
2021/09/08 01:55:46;;;;;;;21.38;12.95;;;;;;;15.01;92.92;98368.09;4959221;28;20038;-58
2021/09/08 01:58:11;;;;;;;20.80;12.80;;;;;;;15.00;93.84;98371.66;4959901;28;20022;-61
2021/09/08 02:00:37;;;;;;;18.98;11.73;;;;;;;15.15;93.08;98368.22;4960246;28;20060;-58
2021/09/08 02:03:02;;;;;;;19.52;12.35;;;;;;;15.04;93.55;98362.69;4960437;28;20023;-60
2021/09/08 02:05:28;;;;;;;21.77;12.35;;;;;;;15.04;93.22;98362.69;4959140;28;20098;-58
2021/09/08 02:07:53;;;;;;;21.77;12.45;;;;;;;15.12;92.85;98360.47;4959691;28;20027;-58
2021/09/08 02:10:18;;;;;;;19.77;12.60;;;;;;;15.12;92.66;98357.84;4960000;28;20011;-58
2021/09/08 02:12:44;;;;;;;19.27;12.52;;;;;;;15.15;92.92;98357.69;4959372;28;20030;-59
2021/09/08 02:15:11;;;;;;;21.52;13.25;;;;;;;15.00;93.87;98353.28;4958740;28;20034;-58
2021/09/08 02:17:36;;;;;;;21.95;12.07;;;;;;;15.20;92.04;98358.31;4960144;28;20074;-58
2021/09/08 02:20:02;;;;;;;19.08;12.40;;;;;;;15.11;92.60;98350.91;4958531;28;20476;-58
2021/09/08 02:22:27;;;;;;;19.25;12.18;;;;;;;15.02;93.00;98354.03;4958776;28;20125;-59
2021/09/08 02:24:53;;;;;;;20.23;11.50;;;;;;;14.96;93.67;98349.09;4960489;28;20026;-58
2021/09/08 02:27:18;;;;;;;17.63;11.70;;;;;;;15.06;92.58;98350.31;4959725;28;20057;-58
2021/09/08 02:29:43;;;;;;;22.00;13.15;;;;;;;14.87;94.80;98349.59;4960320;28;20027;-57
2021/09/08 02:32:09;;;;;;;21.13;13.25;;;;;;;14.92;93.66;98352.81;4962104;28;20047;-58
2021/09/08 02:34:34;;;;;;;20.23;13.35;;;;;;;14.78;95.19;98350.94;4963409;28;20033;-58
2021/09/08 02:36:59;;;;;;;20.38;13.00;;;;;;;15.07;93.32;98352.03;4963880;28;20035;-58
2021/09/08 02:39:25;;;;;;;23.92;12.98;;;;;;;14.93;93.50;98354.53;4965180;28;20026;-58
2021/09/08 02:41:50;;;;;;;21.25;12.75;;;;;;;14.84;94.53;98354.06;4964540;28;20043;-58
2021/09/08 02:44:16;;;;;;;23.13;13.35;;;;;;;14.93;94.37;98355.38;4964776;28;20483;-58
2021/09/08 02:46:41;;;;;;;22.38;13.00;;;;;;;14.91;94.49;98351.13;4964587;28;20053;-59
2021/09/08 02:49:08;;;;;;;29.23;14.38;;;;;;;14.90;94.05;98345.00;4965200;28;20027;-59
2021/09/08 02:51:33;;;;;;;21.98;13.63;;;;;;;14.82;95.27;98342.81;4964746;28;20039;-60
2021/09/08 02:53:59;;;;;;;27.98;13.65;;;;;;;14.76;96.19;98347.50;4965296;28;20027;-59
2021/09/08 02:56:24;;;;;;;24.60;13.70;;;;;;;14.79;94.19;98348.19;4964393;28;20431;-58
2021/09/08 02:58:50;;;;;;;22.10;13.15;;;;;;;14.77;94.85;98343.97;4964580;28;20609;-58
2021/09/08 03:01:16;;;;;;;20.52;12.70;;;;;;;14.82;94.58;98340.19;4964218;28;20129;-58
2021/09/08 03:03:41;;;;;;;22.88;13.40;;;;;;;14.80;94.98;98338.56;4963790;28;20031;-58
2021/09/08 03:06:07;;;;;;;18.98;12.95;;;;;;;14.86;94.47;98332.16;4963664;28;20047;-58
2021/09/08 03:08:32;;;;;;;22.30;14.63;;;;;;;14.81;94.82;98329.75;4964072;28;20033;-59
2021/09/08 03:10:57;;;;;;;20.40;12.60;;;;;;;14.83;94.20;98331.38;4964023;28;20572;-59
2021/09/08 03:13:24;;;;;;;20.75;12.35;;;;;;;14.81;94.22;98324.50;4964649;28;20567;-59
2021/09/08 03:15:49;;;;;;;24.13;13.20;;;;;;;14.56;95.74;98324.94;4964582;28;20505;-58
2021/09/08 03:18:15;;;;;;;22.13;14.48;;;;;;;14.63;95.63;98315.81;4964063;28;20491;-58
2021/09/08 03:20:41;;;;;;;23.48;14.25;;;;;;;14.52;96.24;98318.97;4964011;28;20194;-58
2021/09/08 03:23:06;;;;;;;26.08;14.48;;;;;;;14.57;95.77;98313.47;4964609;28;20105;-59
2021/09/08 03:25:32;;;;;;;22.35;13.85;;;;;;;14.50;96.64;98315.59;4963570;28;20181;-59
2021/09/08 03:27:58;;;;;;;21.15;13.20;;;;;;;14.58;96.03;98317.84;4964523;28;20027;-59
2021/09/08 03:30:24;;;;;;;20.65;13.43;;;;;;;14.53;96.66;98314.56;4963894;28;20042;-58
2021/09/08 03:32:50;;;;;;;19.90;12.02;;;;;;;14.56;96.01;98320.50;4977455;28;20073;-57
2021/09/08 03:35:15;;;;;;;22.10;13.77;;;;;;;14.39;97.03;98324.00;4961974;28;20112;-58
2021/09/08 03:37:42;;;;;;;22.48;14.07;;;;;;;14.37;97.05;98325.88;4963008;28;20023;-60
2021/09/08 03:40:07;;;;;;;21.00;13.52;;;;;;;14.34;97.08;98326.03;4961607;28;20527;-59
2021/09/08 03:42:35;;;;;;;24.15;15.00;;;;;;;14.42;96.77;98323.00;4962416;28;20026;-58
2021/09/08 03:45:00;;;;;;;21.23;13.32;;;;;;;14.55;96.25;98317.97;4962609;28;20642;-59
2021/09/08 03:47:26;;;;;;;23.05;14.40;;;;;;;14.41;96.58;98322.16;4962105;28;20074;-58
2021/09/08 03:49:51;;;;;;;23.42;14.50;;;;;;;14.47;96.25;98326.25;4959559;28;20023;-59
2021/09/08 03:52:17;;;;;;;22.42;14.32;;;;;;;14.46;95.95;98324.53;4960797;28;20130;-58
2021/09/08 03:54:43;;;;;;;27.65;14.73;;;;;;;14.26;97.33;98323.78;4961879;28;20048;-59
2021/09/08 03:57:08;;;;;;;24.77;14.48;;;;;;;14.24;97.68;98320.41;4962417;28;20035;-59
2021/09/08 03:59:35;;;;;;;25.98;14.77;;;;;;;14.25;97.45;98329.13;4961937;28;20539;-58
2021/09/08 04:02:00;;;;;;;20.00;12.90;;;;;;;14.23;98.86;98320.47;4960828;28;20045;-59
2021/09/08 04:04:26;;;;;;;23.48;14.50;;;;;;;14.38;97.03;98310.97;4961536;28;20113;-58
2021/09/08 04:06:51;;;;;;;24.27;13.90;;;;;;;14.21;98.10;98307.44;4951578;28;20058;-58
2021/09/08 04:09:16;;;;;;;20.92;13.63;;;;;;;14.10;99.04;98312.38;4960659;28;20556;-58
2021/09/08 04:11:43;;;;;;;23.80;14.45;;;;;;;14.35;98.06;98317.19;4960718;28;20146;-59
2021/09/08 04:14:09;;;;;;;21.98;14.38;;;;;;;14.43;96.86;98312.44;4960777;28;20038;-58
2021/09/08 04:16:34;;;;;;;22.08;13.73;;;;;;;14.33;97.84;98313.81;4961725;28;20413;-58
2021/09/08 04:18:59;;;;;;;22.63;14.15;;;;;;;14.51;96.34;98311.19;4961955;28;20505;-58
2021/09/08 04:21:25;;;;;;;22.95;13.68;;;;;;;14.30;98.25;98323.63;4961678;28;20547;-57
2021/09/08 04:23:50;;;;;;;24.95;14.30;;;;;;;14.32;97.77;98314.75;4962349;28;20606;-58
2021/09/08 04:26:15;;;;;;;23.83;15.00;;;;;;;14.36;97.58;98313.66;4961511;28;20071;-58
2021/09/08 04:28:41;;;;;;;22.30;14.45;;;;;;;14.29;97.91;98312.28;4965816;28;20035;-59
2021/09/08 04:31:06;;;;;;;24.35;15.18;;;;;;;14.27;97.82;98314.13;4961350;28;20595;-58
2021/09/08 04:33:31;;;;;;;25.30;15.27;;;;;;;14.45;97.40;98305.31;4961722;28;20037;-57
2021/09/08 04:35:57;;;;;;;24.25;15.07;;;;;;;14.37;97.29;98302.25;4960179;28;20051;-58
2021/09/08 04:38:24;;;;;;;21.90;14.73;;;;;;;14.48;96.38;98311.34;4961258;28;20030;-58
2021/09/08 04:40:50;;;;;;;25.70;15.30;;;;;;;14.26;98.50;98315.06;4961062;28;20031;-60
2021/09/08 04:43:15;;;;;;;23.65;14.52;;;;;;;14.23;98.63;98313.44;4961900;28;20030;-58
2021/09/08 04:45:41;;;;;;;24.05;15.32;;;;;;;14.45;97.27;98307.09;4960453;28;20034;-58
2021/09/08 04:48:06;;;;;;;27.23;15.95;;;;;;;14.27;98.01;98308.91;4960221;28;20026;-59
2021/09/08 04:50:32;;;;;;;24.20;15.20;;;;;;;14.42;97.33;98308.09;4961190;28;20636;-58
2021/09/08 04:52:57;;;;;;;26.75;15.30;;;;;;;14.35;97.98;98322.44;4961051;28;20026;-61
2021/09/08 04:55:22;;;;;;;24.77;14.20;;;;;;;14.33;97.87;98316.44;4960596;28;20123;-58
2021/09/08 04:57:48;;;;;;;26.35;16.00;;;;;;;14.40;96.93;98320.44;4960308;28;20125;-58
2021/09/08 05:00:13;;;;;;;23.52;13.93;;;;;;;14.34;97.95;98315.53;4959978;28;20045;-59
2021/09/08 05:02:39;;;;;;;28.17;15.45;;;;;;;14.24;98.64;98314.28;4950390;28;20030;-58
2021/09/08 05:05:05;;;;;;;25.30;15.65;;;;;;;14.33;97.68;98313.81;4961109;28;20038;-58
2021/09/08 05:07:30;;;;;;;24.05;15.48;;;;;;;14.45;97.48;98307.94;4962828;28;20031;-61
2021/09/08 05:09:55;;;;;;;24.67;15.82;;;;;;;14.23;98.62;98310.81;4962437;28;20022;-58
2021/09/08 05:12:21;;;;;;;23.35;15.48;;;;;;;14.46;97.25;98308.78;4961977;28;20039;-58
2021/09/08 05:14:46;;;;;;;26.33;15.23;;;;;;;14.53;96.75;98309.31;4963291;28;20038;-59
2021/09/08 05:17:11;;;;;;;23.17;14.75;;;;;;;14.64;96.49;98307.00;4962706;28;20520;-58
2021/09/08 05:19:37;;;;;;;25.95;15.10;;;;;;;15.09;93.26;98302.88;4963343;28;20113;-59
2021/09/08 05:22:02;;;;;;;25.48;14.75;;;;;;;15.91;89.86;98309.66;4960150;28;20039;-60
2021/09/08 05:24:28;;;;;;;19.90;13.23;;;;;;;16.17;88.10;98312.56;4960288;28;20028;-58
2021/09/08 05:26:53;;;;;;;21.95;14.10;;;;;;;16.21;86.31;98314.09;4961300;28;20042;-59
2021/09/08 05:29:21;;;;;;;24.55;12.40;;;;;;;17.04;82.08;98303.84;4962538;28;20026;-59
2021/09/08 05:31:46;;;;;;;19.75;13.40;;;;;;;17.07;80.71;98308.88;4961126;28;20166;-58
2021/09/08 05:36:49;;;;;;;22.42;12.60;;;;;;;18.67;74.98;98308.13;5037895;28;21301;-59
2021/09/08 05:39:14;;;;;;;19.92;12.00;;;;;;;18.63;74.01;98314.56;5001853;28;20054;-60
2021/09/08 05:41:40;;;;;;;19.73;13.27;;;;;;;17.76;76.27;98316.00;4987305;28;20049;-60
2021/09/08 05:44:05;;;;;;;18.15;12.10;;;;;;;17.76;75.79;98311.56;5008529;28;20038;-59
2021/09/08 05:46:31;;;;;;;19.45;13.73;;;;;;;16.67;81.40;98318.38;5007884;28;20045;-59
2021/09/08 05:48:56;;;;;;;20.50;13.30;;;;;;;17.39;78.97;98313.06;5008106;28;20036;-59
2021/09/08 05:51:22;;;;;;;19.65;13.50;;;;;;;17.06;81.20;98312.47;5007565;28;20380;-59
2021/09/08 05:53:47;;;;;;;20.05;13.43;;;;;;;16.92;81.26;98309.84;5005863;28;20169;-59
2021/09/08 05:56:12;;;;;;;19.35;13.05;;;;;;;17.60;79.09;98305.59;5006170;28;20040;-61
2021/09/08 05:58:38;;;;;;;20.80;14.23;;;;;;;17.61;78.18;98307.25;5004562;28;20041;-60
2021/09/08 06:01:03;;;;;;;20.23;12.68;;;;;;;18.03;76.10;98305.41;5006956;28;20065;-59
2021/09/08 06:03:28;;;;;;;18.50;12.77;;;;;;;17.66;77.15;98307.81;5006822;28;20146;-59
2021/09/08 06:05:54;;;;;;;23.33;13.07;;;;;;;17.56;78.07;98304.94;5006114;28;20034;-59
2021/09/08 06:08:21;;;;;;;22.85;13.27;;;;;;;17.49;77.86;98309.75;5007637;28;20062;-59
2021/09/08 06:10:47;;;;;;;20.65;13.55;;;;;;;17.36;77.67;98308.00;5007509;28;20482;-59
2021/09/08 06:13:13;;;;;;;19.83;13.57;;;;;;;17.66;77.43;98305.19;5005344;28;20033;-60
2021/09/08 06:15:39;;;;;;;19.63;13.48;;;;;;;17.65;76.70;98303.50;5006838;28;20478;-60
2021/09/08 06:18:05;;;;;;;24.30;13.23;;;;;;;17.55;78.04;98297.94;5008123;28;20034;-59
2021/09/08 06:20:31;;;;;;;21.35;13.23;;;;;;;17.97;76.14;98287.38;5006857;28;20107;-59
2021/09/08 06:22:56;;;;;;;21.13;14.10;;;;;;;18.11;75.39;98289.94;5023852;28;20033;-59
2021/09/08 06:25:23;;;;;;;20.95;13.68;;;;;;;17.33;77.81;98293.22;5005971;28;20400;-59
2021/09/08 06:27:49;;;;;;;20.40;12.50;;;;;;;18.35;73.94;98290.06;5005602;28;20061;-59
2021/09/08 06:30:14;;;;;;;17.85;12.55;;;;;;;18.08;75.19;98284.84;5006105;28;20064;-59
2021/09/08 06:32:40;;;;;;;19.85;13.38;;;;;;;18.84;72.62;98288.50;5009413;28;20036;-60
2021/09/08 06:35:05;;;;;;;20.20;13.23;;;;;;;19.11;71.97;98279.56;5006520;28;20039;-59
2021/09/08 06:37:31;;;;;;;19.50;13.18;;;;;;;18.45;73.23;98284.97;5006482;28;20026;-59
2021/09/08 06:39:56;;;;;;;19.58;13.40;;;;;;;19.33;70.56;98284.13;5008026;28;20538;-59
2021/09/08 06:42:22;;;;;;;21.42;13.15;;;;;;;18.92;71.81;98286.16;5007559;28;20038;-59
2021/09/08 06:44:52;;;;;;;20.55;13.55;;;;;;;18.58;72.59;98293.78;5004790;28;20498;-59
2021/09/08 06:47:18;;;;;;;20.13;12.15;;;;;;;20.31;68.11;98298.06;4998886;28;20076;-60
2021/09/08 06:49:43;;;;;;;18.95;12.68;;;;;;;22.40;61.47;98293.75;4992988;28;20109;-59
2021/09/08 06:52:10;;;;;;;17.58;12.35;;;;;;;24.40;55.37;98289.31;4994364;28;20038;-60
2021/09/08 06:54:35;;;;;;;18.08;12.60;;;;;;;24.43;54.96;98286.38;4994218;28;20113;-59
2021/09/08 06:57:00;;;;;;;18.95;11.85;;;;;;;24.74;53.35;98280.84;4993858;28;20038;-59
2021/09/08 06:59:26;;;;;;;16.00;11.57;;;;;;;25.69;50.26;98277.97;4992025;28;20044;-60
2021/09/08 07:01:51;;;;;;;16.60;11.65;;;;;;;26.96;47.72;98280.25;4993949;28;20046;-60
2021/09/08 07:04:16;;;;;;;17.05;12.07;;;;;;;27.23;46.69;98271.16;4992828;28;20026;-60
2021/09/08 07:06:42;;;;;;;19.70;11.93;;;;;;;29.16;44.08;98277.03;5005341;28;20042;-58
2021/09/08 07:09:09;;;;;;;15.80;11.98;;;;;;;29.17;43.29;98270.63;4993424;28;20038;-59
2021/09/08 07:11:35;;;;;;;15.85;11.27;;;;;;;29.83;41.86;98267.59;4992576;28;20042;-59
2021/09/08 07:14:00;;;;;;;17.45;11.27;;;;;;;29.83;41.27;98254.16;4992007;28;20386;-60
2021/09/08 07:16:25;;;;;;;15.20;10.57;;;;;;;31.98;38.10;98259.56;4995018;28;20066;-60
2021/09/08 07:18:51;;;;;;;16.02;11.00;;;;;;;31.10;39.08;98251.56;4991212;28;20041;-60
2021/09/08 07:21:16;;;;;;;14.88;10.38;;;;;;;32.14;36.63;98253.09;4992047;28;20092;-60
2021/09/08 07:23:41;;;;;;;13.07;10.50;;;;;;;31.95;37.41;98250.00;4992564;28;20072;-62
2021/09/08 07:26:07;;;;;;;15.45;11.13;;;;;;;28.16;42.95;98256.78;4992368;28;20061;-61
2021/09/08 07:28:32;;;;;;;14.43;10.68;;;;;;;31.76;37.51;98245.25;4993165;28;20053;-61
2021/09/08 07:30:57;;;;;;;16.08;11.10;;;;;;;30.22;41.07;98247.75;4992421;28;20149;-61
2021/09/08 07:33:24;;;;;;;16.13;10.63;;;;;;;31.25;37.45;98240.78;4992511;28;20056;-61
2021/09/08 07:35:50;;;;;;;14.35;10.43;;;;;;;32.67;36.11;98242.72;4993537;28;20046;-61
2021/09/08 07:38:19;;;;;;;19.67;10.93;;;;;;;30.24;39.30;98245.75;4992868;28;20034;-60
2021/09/08 07:40:45;;;;;;;17.42;11.02;;;;;;;28.66;41.66;98241.47;4991435;28;20038;-61
2021/09/08 07:43:11;;;;;;;15.52;10.10;;;;;;;30.79;38.93;98235.59;4993132;28;20029;-61
2021/09/08 07:45:37;;;;;;;15.07;10.10;;;;;;;33.51;34.39;98236.22;4990828;28;20068;-60
2021/09/08 07:48:03;;;;;;;16.40;10.05;;;;;;;31.90;36.27;98236.28;4990465;28;20022;-60
2021/09/08 07:50:28;;;;;;;11.98;9.43;;;;;;;32.96;34.96;98247.03;4991576;28;20037;-60
2021/09/08 07:52:54;;;;;;;13.75;10.35;;;;;;;31.60;35.80;98236.41;4993427;28;20022;-60
2021/09/08 07:55:19;;;;;;;13.63;9.80;;;;;;;31.13;37.68;98233.16;4993138;28;20427;-58
2021/09/08 07:57:45;;;;;;;13.70;10.10;;;;;;;31.62;36.63;98228.97;4991299;28;20041;-60
2021/09/08 08:00:11;;;;;;;13.52;10.15;;;;;;;31.16;38.00;98229.25;4990396;28;20030;-59
2021/09/08 08:02:50;;;;;;;14.50;9.55;;;;;;;32.41;35.40;98227.97;4992725;28;20459;-60
2021/09/08 08:05:16;;;;;;;13.52;9.32;;;;;;;31.85;36.75;98227.91;4991411;28;20072;-58
2021/09/08 08:07:43;;;;;;;13.15;9.50;;;;;;;31.86;36.44;98230.44;4991806;28;20077;-61
2021/09/08 08:10:09;;;;;;;14.27;9.38;;;;;;;32.75;34.47;98222.81;4987477;28;20400;-61
2021/09/08 08:12:34;;;;;;;12.68;8.82;;;;;;;33.02;34.41;98226.47;4993241;28;20468;-60
2021/09/08 08:15:00;;;;;;;16.13;9.25;;;;;;;32.24;36.27;98226.59;4991019;28;20032;-60
2021/09/08 08:17:25;;;;;;;11.45;9.13;;;;;;;33.98;32.64;98218.19;4992083;28;20149;-59
2021/09/08 08:19:51;;;;;;;13.90;9.57;;;;;;;32.90;34.35;98217.25;4991804;28;20392;-60
2021/09/08 08:22:17;;;;;;;16.35;9.25;;;;;;;31.61;36.21;98219.19;4991385;28;20100;-58
2021/09/08 08:24:42;;;;;;;11.68;9.55;;;;;;;32.01;36.27;98218.72;4990361;28;20037;-59
2021/09/08 08:27:08;;;;;;;13.60;9.50;;;;;;;31.79;36.76;98212.53;4987994;28;20450;-60
2021/09/08 08:29:33;;;;;;;15.38;10.07;;;;;;;31.86;36.77;98208.03;4988281;28;20628;-62
2021/09/08 08:31:59;;;;;;;11.73;9.15;;;;;;;33.20;35.13;98218.66;4990067;28;20527;-59
2021/09/08 08:34:25;;;;;;;13.65;9.07;;;;;;;30.42;38.38;98213.97;4989862;28;20034;-60
2021/09/08 08:36:50;;;;;;;13.05;8.88;;;;;;;33.80;33.35;98205.28;4989490;28;20164;-59
2021/09/08 08:39:16;;;;;;;12.00;8.80;;;;;;;31.41;36.91;98207.34;4992360;28;20038;-59
2021/09/08 08:41:41;;;;;;;15.75;9.02;;;;;;;33.04;34.71;98211.72;4990761;28;20050;-60
2021/09/08 08:44:09;;;;;;;12.70;8.80;;;;;;;31.60;37.96;98208.63;4991863;28;20033;-60
2021/09/08 08:46:35;;;;;;;12.63;9.27;;;;;;;30.31;38.51;98207.16;4990611;28;20038;-59
2021/09/08 08:49:03;;;;;;;12.35;8.90;;;;;;;31.62;36.47;98206.56;4989921;28;20037;-59
2021/09/08 08:51:28;;;;;;;12.48;8.77;;;;;;;32.52;35.87;98190.69;4990174;28;20041;-59
2021/09/08 08:53:53;;;;;;;13.10;8.70;;;;;;;32.57;35.38;98204.38;4991881;28;21057;-60
2021/09/08 08:56:21;;;;;;;12.40;8.82;;;;;;;32.44;34.97;98205.16;4990142;28;20044;-62
2021/09/08 08:58:47;;;;;;;10.50;8.55;;;;;;;33.86;34.55;98209.03;4990565;28;20041;-60
2021/09/08 09:01:21;;;;;;;10.50;8.55;;;;;;;33.75;34.05;98204.25;4990203;28;20046;-59
2021/09/08 09:04:07;;;;;;;11.27;8.40;;;;;;;32.50;36.91;98193.56;4992009;28;20041;-59
2021/09/08 09:06:35;;;;;;;11.50;7.65;;;;;;;33.59;34.63;98187.34;4990260;28;20058;-59
2021/09/08 09:09:05;;;;;;;10.93;8.52;;;;;;;33.71;34.52;98193.00;4989728;28;20053;-60
2021/09/08 09:11:31;;;;;;;10.88;8.20;;;;;;;35.38;31.67;98189.91;4990715;28;20508;-61
2021/09/08 09:13:56;;;;;;;13.75;7.60;;;;;;;34.71;33.01;98182.09;4991982;28;20061;-59
2021/09/08 09:16:26;;;;;;;14.60;8.30;;;;;;;32.81;35.34;98187.72;4988173;28;20038;-60
2021/09/08 09:18:52;;;;;;;13.10;8.45;;;;;;;32.75;35.23;98185.81;4989950;28;20038;-59
2021/09/08 09:21:18;;;;;;;10.77;8.15;;;;;;;34.88;32.61;98181.63;4991955;28;20034;-59
2021/09/08 09:23:50;;;;;;;12.07;8.25;;;;;;;34.15;33.02;98179.88;4990792;28;20030;-60
2021/09/08 09:26:27;;;;;;;13.70;7.93;;;;;;;34.31;32.45;98184.03;4987010;28;20774;-59
2021/09/08 09:28:54;;;;;;;10.52;7.90;;;;;;;33.08;35.01;98179.72;4990215;28;20645;-59
2021/09/08 09:31:23;;;;;;;10.63;7.90;;;;;;;33.89;33.73;98169.91;4989955;28;20050;-58
2021/09/08 09:33:58;;;;;;;13.27;7.82;;;;;;;33.97;33.28;98170.53;4989782;28;20057;-59
2021/09/08 09:36:28;;;;;;;15.23;8.65;;;;;;;33.63;34.84;98168.81;4997302;28;20123;-58
2021/09/08 09:38:57;;;;;;;11.90;8.10;;;;;;;31.41;37.60;98167.78;4990779;28;20558;-59
2021/09/08 09:41:33;;;;;;;15.57;7.97;;;;;;;33.03;34.95;98160.56;4991052;28;20575;-59
2021/09/08 09:44:07;;;;;;;10.07;8.18;;;;;;;32.74;34.70;98159.88;4990911;28;20493;-58
2021/09/08 09:46:33;;;;;;;12.73;8.05;;;;;;;32.71;34.30;98157.56;4989812;28;20050;-61
2021/09/08 09:49:03;;;;;;;12.32;8.05;;;;;;;32.80;35.24;98148.25;4996611;28;20104;-61
2021/09/08 09:51:29;;;;;;;14.05;7.80;;;;;;;32.35;35.42;98147.81;4990132;28;20061;-60
2021/09/08 09:53:54;;;;;;;12.40;8.00;;;;;;;32.54;35.72;98150.81;5005265;28;20025;-59
2021/09/08 09:56:22;;;;;;;11.88;7.97;;;;;;;31.06;38.12;98143.38;4990870;28;20073;-61
2021/09/08 09:58:51;;;;;;;9.63;7.60;;;;;;;33.95;33.94;98134.75;4989886;28;20030;-61
2021/09/08 10:01:17;;;;;;;10.00;7.40;;;;;;;32.41;35.23;98133.50;4991850;28;20038;-58
2021/09/08 10:03:43;;;;;;;9.57;7.70;;;;;;;34.11;33.03;98119.91;4991577;28;20034;-59
2021/09/08 10:06:09;;;;;;;13.07;7.60;;;;;;;33.28;34.27;98125.75;5004307;28;20046;-58
2021/09/08 10:08:41;;;;;;;10.38;7.13;;;;;;;34.07;32.75;98124.09;4990709;28;20583;-60
2021/09/08 10:11:10;;;;;;;11.40;7.63;;;;;;;34.17;32.39;98119.13;4991036;28;20027;-59
2021/09/08 10:13:41;;;;;;;8.95;7.18;;;;;;;34.37;32.01;98116.34;4989654;28;20048;-59
2021/09/08 10:16:07;;;;;;;11.02;7.50;;;;;;;34.23;32.51;98117.44;4991908;28;20049;-59
2021/09/08 10:18:34;;;;;;;10.25;7.40;;;;;;;32.13;35.05;98119.22;4992134;28;20026;-59
2021/09/08 10:21:07;;;;;;;9.73;7.68;;;;;;;33.88;32.59;98114.97;4989329;28;20042;-59
2021/09/08 10:23:44;;;;;;;11.00;7.75;;;;;;;31.61;36.74;98114.03;4992700;28;20026;-61
2021/09/08 10:26:12;;;;;;;10.63;7.20;;;;;;;31.92;34.91;98106.63;4994154;28;20046;-59
2021/09/08 10:28:40;;;;;;;9.77;7.35;;;;;;;32.85;33.89;98107.97;4994906;28;20014;-60
2021/09/08 10:31:07;;;;;;;11.13;7.50;;;;;;;31.90;34.76;98106.81;4992284;28;20043;-61
2021/09/08 10:33:35;;;;;;;11.13;7.70;;;;;;;31.35;35.42;98101.16;4996199;28;20034;-58
2021/09/08 10:36:01;;;;;;;9.68;7.45;;;;;;;31.07;36.64;98104.63;4993015;28;20045;-59
2021/09/08 10:38:30;;;;;;;11.18;7.55;;;;;;;32.95;33.33;98095.94;4994643;28;20030;-60
2021/09/08 10:40:56;;;;;;;9.80;7.55;;;;;;;31.78;34.46;98097.56;4994952;28;20196;-60
2021/09/08 10:43:36;;;;;;;9.25;6.57;;;;;;;31.05;34.58;98087.00;4995566;28;20026;-59
2021/09/08 10:46:03;;;;;;;10.50;6.40;;;;;;;29.47;36.03;98088.13;4993823;28;20045;-60
2021/09/08 10:48:38;;;;;;;8.90;6.72;;;;;;;31.70;33.12;98079.69;4993488;28;20030;-60
2021/09/08 10:51:06;;;;;;;10.93;6.53;;;;;;;31.38;33.29;98081.91;4992656;28;20046;-60
2021/09/08 10:53:34;;;;;;;8.07;6.53;;;;;;;31.35;32.81;98081.47;5009366;28;20022;-60
2021/09/08 10:56:01;;;;;;;10.52;6.53;;;;;;;32.27;31.69;98075.09;4993617;28;20034;-59
2021/09/08 10:58:58;;;;;;;8.48;6.40;;;;;;;31.33;32.79;98079.78;4994563;28;20081;-60
2021/09/08 11:01:24;;;;;;;7.88;6.20;;;;;;;32.77;31.13;98067.63;4993108;28;20558;-60
2021/09/08 11:03:51;;;;;;;8.50;6.13;;;;;;;32.15;31.41;98071.28;4994396;28;20089;-59
2021/09/08 11:06:16;;;;;;;7.55;6.05;;;;;;;32.31;31.29;98062.84;4996435;28;20125;-60
2021/09/08 11:08:44;;;;;;;11.57;7.15;;;;;;;30.40;35.20;98062.59;4993070;28;20364;-60
2021/09/08 11:11:19;;;;;;;9.93;6.20;;;;;;;31.78;32.32;98063.38;4993051;28;20120;-59
2021/09/08 11:13:53;;;;;;;9.23;6.20;;;;;;;31.89;32.04;98056.56;4992976;28;20099;-61
2021/09/08 11:16:22;;;;;;;9.20;6.60;;;;;;;31.09;32.25;98058.63;4992329;28;20511;-59
2021/09/08 11:18:49;;;;;;;10.38;6.40;;;;;;;31.05;33.04;98065.44;4992867;28;20026;-59